Terminal Aerodrome Forecast
Issued by NWS Wilmington, OH

Current Version | Previous Version | Text Only | Print | Product List | Glossary Off
Versions: 1 2 3 4 5 6 7 8 9 10 11 12 13 14 15 16 17 18 19 20 21 22 23 24 25 26 27 28 29 30 31 32 33

955
FTUS41 KILN 241409 AAB
TAFCVG
TAF AMD
KCVG 241409Z 2414/2518 07008KT 4SM HZ FEW009
     FM241600 04008KT P6SM SCT025
     FM250200 05004KT P6SM FEW030 SCT250
     FM251500 02006KT P6SM FEW035 SCT050=

USA.gov is the U.S. government's official web portal to all federal, state and local government web resources and services.